Time;durP1;ratioP1;P1;durP2;ratioP2;P2;SDS_P1;SDS_P2;PMS_P1;PMS_P2;Temp;Humidity;BMP_temperature;BMP_pressure;BME280_temperature;BME280_humidity;BME280_pressure;Samples;Min_cycle;Max_cycle;Signal;HPM_P1;HPM_P2
2022/08/11 00:00:38;;;;;;;4.53;2.00;;;;;;;27.24;39.05;101266.22;5028691;28;20538;-72
2022/08/11 00:03:12;;;;;;;4.72;2.15;;;;;;;27.29;38.84;101266.94;5025099;28;20045;-72
2022/08/11 00:05:46;;;;;;;3.67;2.03;;;;;;;27.33;38.66;101262.41;5029276;28;20135;-71
2022/08/11 00:08:23;;;;;;;5.80;2.22;;;;;;;27.21;38.97;101263.63;5026003;28;20577;-72
2022/08/11 00:10:56;;;;;;;3.67;1.80;;;;;;;27.02;39.16;101259.81;5024799;28;20057;-72
2022/08/11 00:13:33;;;;;;;3.03;1.85;;;;;;;27.01;39.40;101255.38;5025077;28;20053;-73
2022/08/11 00:16:03;;;;;;;3.55;2.20;;;;;;;26.91;39.36;101260.13;5023030;28;20103;-74
2022/08/11 00:18:41;;;;;;;5.05;2.00;;;;;;;26.86;39.32;101252.28;5028833;28;20085;-72
2022/08/11 00:21:11;;;;;;;1.92;1.48;;;;;;;26.73;39.32;101250.91;5023842;28;20076;-72
2022/08/11 00:23:44;;;;;;;3.53;1.98;;;;;;;26.61;39.64;101256.59;5023032;28;20081;-76
2022/08/11 00:26:14;;;;;;;2.60;1.73;;;;;;;26.66;38.98;101250.25;5018301;28;20083;-79
2022/08/11 00:28:43;;;;;;;2.58;1.95;;;;;;;26.54;39.11;101251.47;5025558;28;20053;-73
2022/08/11 00:31:22;;;;;;;4.53;1.70;;;;;;;26.55;39.31;101247.06;5024486;28;20062;-73
2022/08/11 00:33:53;;;;;;;5.43;1.60;;;;;;;26.47;39.16;101243.72;5024820;28;20061;-74
2022/08/11 00:36:27;;;;;;;4.43;1.93;;;;;;;26.53;39.26;101244.41;5026794;28;20049;-70
2022/08/11 00:39:04;;;;;;;2.50;1.75;;;;;;;26.49;39.52;101242.75;5021715;28;20053;-74
2022/08/11 00:41:37;;;;;;;4.93;1.58;;;;;;;26.21;39.45;101247.09;5024211;28;20131;-73
2022/08/11 00:44:30;;;;;;;2.80;1.85;;;;;;;25.87;40.67;101240.94;5026397;28;20089;-72
2022/08/11 00:47:17;;;;;;;4.75;2.10;;;;;;;25.76;40.57;101250.03;5018466;28;20061;-74
2022/08/11 00:49:59;;;;;;;2.92;2.08;;;;;;;25.73;40.54;101247.47;5026365;28;20105;-72
2022/08/11 00:52:40;;;;;;;3.90;1.52;;;;;;;25.79;40.83;101255.25;5020849;28;20789;-72
2022/08/11 00:55:43;;;;;;;2.28;1.25;;;;;;;25.90;40.21;101242.63;5026272;28;20449;-71
2022/08/11 00:58:41;;;;;;;1.92;1.25;;;;;;;26.00;39.52;101241.47;5024302;28;20107;-76
2022/08/11 01:01:19;;;;;;;2.72;1.17;;;;;;;26.07;39.27;101239.53;5022135;28;20103;-74
2022/08/11 01:04:33;;;;;;;1.52;1.20;;;;;;;26.19;39.03;101244.50;5027299;28;20056;-75
2022/08/11 01:07:46;;;;;;;1.38;1.00;;;;;;;26.22;37.98;101235.56;5022599;28;20088;-74
2022/08/11 01:10:49;;;;;;;2.08;1.08;;;;;;;26.10;38.47;101227.03;4972978;28;20152;-74
2022/08/11 01:13:45;;;;;;;2.92;1.35;;;;;;;25.93;38.65;101234.59;5023653;28;20112;-74
2022/08/11 01:16:39;;;;;;;2.97;1.30;;;;;;;25.78;38.78;101222.56;5024114;28;20046;-73
2022/08/11 01:19:47;;;;;;;2.08;0.95;;;;;;;25.78;38.30;101233.19;5023595;28;20057;-71
2022/08/11 01:22:52;;;;;;;2.08;1.10;;;;;;;25.79;38.09;101218.13;4997985;28;20111;-72
2022/08/11 01:26:01;;;;;;;2.63;1.20;;;;;;;25.80;38.84;101212.81;5025267;28;20092;-72
2022/08/11 01:29:08;;;;;;;1.45;1.20;;;;;;;25.91;38.98;101225.81;5023776;28;20092;-73
2022/08/11 01:32:02;;;;;;;1.85;1.00;;;;;;;25.94;38.36;101223.06;5021547;28;20045;-72
2022/08/11 01:35:23;;;;;;;1.45;1.20;;;;;;;25.98;38.61;101230.03;5024188;28;20179;-73
2022/08/11 01:38:39;;;;;;;3.45;0.93;;;;;;;26.02;38.78;101223.75;5025450;28;20046;-72
2022/08/11 01:45:04;;;;;;;1.10;0.98;;;;;;;26.10;38.69;101242.94;5023853;28;20067;-75
2022/08/11 01:47:53;;;;;;;1.23;0.73;;;;;;;26.08;36.71;101236.81;5012446;28;20147;-75
2022/08/11 01:50:54;;;;;;;2.30;0.70;;;;;;;26.05;37.50;101242.22;5024376;28;20045;-73
2022/08/11 01:53:39;;;;;;;1.52;0.70;;;;;;;26.06;37.76;101246.59;5023616;28;20053;-72
2022/08/11 01:56:24;;;;;;;1.17;0.68;;;;;;;26.11;37.93;101247.38;5024760;28;20526;-74
2022/08/11 01:59:09;;;;;;;0.82;0.52;;;;;;;26.18;37.69;101247.19;5029813;28;20243;-75
2022/08/11 02:01:57;;;;;;;1.08;0.82;;;;;;;26.22;37.60;101254.13;5026107;28;20107;-76
2022/08/11 02:04:34;;;;;;;0.82;0.68;;;;;;;26.24;37.75;101250.53;5027676;28;20045;-74
2022/08/11 02:07:18;;;;;;;0.98;0.77;;;;;;;26.23;37.80;101247.94;5026277;28;20495;-72
2022/08/11 02:12:58;;;;;;;0.95;0.70;;;;;;;26.08;37.98;101242.13;5021243;28;20081;-73
2022/08/11 02:15:35;;;;;;;2.35;1.00;;;;;;;26.04;38.02;101250.19;5023120;28;20050;-74
2022/08/11 02:18:11;;;;;;;0.80;0.75;;;;;;;26.01;38.23;101255.59;5028356;28;20502;-72
2022/08/11 02:23:44;;;;;;;1.85;0.85;;;;;;;25.91;39.27;101255.84;5024319;28;20111;-72
2022/08/11 02:26:21;;;;;;;1.20;0.95;;;;;;;25.86;39.16;101256.81;5022891;28;20045;-72
2022/08/11 02:28:58;;;;;;;2.67;0.80;;;;;;;25.79;38.78;101257.91;5024863;28;20049;-72
2022/08/11 02:34:43;;;;;;;0.80;0.70;;;;;;;25.62;39.29;101253.91;5027289;28;20088;-72
2022/08/11 02:37:18;;;;;;;1.15;0.65;;;;;;;25.54;39.32;101255.91;5027263;28;20115;-73
2022/08/11 02:40:08;;;;;;;1.70;0.80;;;;;;;25.45;39.53;101245.53;5026330;28;20628;-72
2022/08/11 02:42:50;;;;;;;1.42;0.70;;;;;;;25.37;39.66;101245.69;5025011;28;20053;-73
2022/08/11 02:45:35;;;;;;;1.73;0.80;;;;;;;25.30;39.22;101246.75;5028548;28;20125;-73
2022/08/11 02:51:10;;;;;;;0.88;0.57;;;;;;;25.16;39.58;101249.69;5016610;28;20064;-74
2022/08/11 02:53:44;;;;;;;1.75;1.10;;;;;;;25.14;39.37;101251.50;5013300;28;20115;-73
2022/08/11 02:56:23;;;;;;;1.90;0.80;;;;;;;25.15;39.72;101257.66;5001454;28;20060;-74
2022/08/11 03:01:53;;;;;;;1.52;0.90;;;;;;;25.07;41.89;101260.50;5010874;28;20212;-72
2022/08/11 03:04:29;;;;;;;1.60;0.82;;;;;;;24.95;40.63;101266.94;5013125;28;20046;-73
2022/08/11 03:07:17;;;;;;;1.70;0.80;;;;;;;24.83;40.21;101262.78;5017284;28;20049;-73
2022/08/11 03:09:54;;;;;;;1.33;0.68;;;;;;;24.75;39.84;101263.84;5012958;28;20046;-73
2022/08/11 03:18:23;;;;;;;1.55;0.60;;;;;;;24.61;40.84;101270.31;5006818;28;20061;-71
2022/08/11 03:21:07;;;;;;;1.40;0.88;;;;;;;24.58;40.54;101278.31;5009640;28;20058;-71
2022/08/11 03:23:42;;;;;;;1.27;0.73;;;;;;;24.54;42.19;101279.28;5007248;28;20565;-71
2022/08/11 03:26:23;;;;;;;1.08;0.70;;;;;;;24.46;42.33;101276.75;5010729;28;20058;-71
2022/08/11 03:29:05;;;;;;;0.85;0.80;;;;;;;24.39;42.76;101279.53;5010283;28;20085;-72
2022/08/11 03:31:36;;;;;;;;;;;;;;;24.31;42.79;101292.91;5011474;28;20045;-72
2022/08/11 03:34:06;;;;;;;2.00;0.80;;;;;;;24.22;43.41;101293.94;5008649;28;19925;-72
2022/08/11 03:37:00;;;;;;;1.17;0.65;;;;;;;24.14;43.86;101292.34;5014031;28;20069;-71
2022/08/11 03:39:42;;;;;;;3.65;0.82;;;;;;;24.03;43.24;101290.78;5016361;28;20048;-72
2022/08/11 03:42:20;;;;;;;1.80;0.80;;;;;;;23.96;43.76;101302.38;5013422;28;20128;-71
2022/08/11 03:45:02;;;;;;;1.35;0.80;;;;;;;23.90;44.08;101296.31;5017564;28;20049;-72
2022/08/11 03:48:08;;;;;;;2.00;0.75;;;;;;;23.80;43.74;101300.84;5021556;27;20084;-71
2022/08/11 03:51:07;;;;;;;3.58;0.90;;;;;;;23.70;44.77;101302.75;4989184;28;20494;-72
2022/08/11 03:53:56;;;;;;;1.10;0.70;;;;;;;23.60;46.36;101296.75;5027944;28;20195;-72
2022/08/11 03:56:57;;;;;;;0.90;0.77;;;;;;;23.50;47.81;101300.44;5025121;28;20056;-72
2022/08/11 04:00:00;;;;;;;2.10;0.88;;;;;;;23.40;47.09;101304.09;5025207;28;20498;-72
2022/08/11 04:03:08;;;;;;;1.40;0.70;;;;;;;23.27;49.64;101295.47;5026515;28;20049;-71
2022/08/11 04:06:23;;;;;;;1.02;0.70;;;;;;;23.14;49.35;101307.13;4985117;28;20049;-72
2022/08/11 04:09:23;;;;;;;2.78;1.15;;;;;;;23.02;48.80;101313.47;5026553;28;20052;-72
2022/08/11 04:12:24;;;;;;;3.92;0.85;;;;;;;22.89;49.08;101306.56;5017641;28;20127;-71
2022/08/11 04:18:45;;;;;;;4.65;1.00;;;;;;;22.70;49.57;101316.44;5027305;28;20160;-73
2022/08/11 04:21:49;;;;;;;3.50;0.95;;;;;;;22.62;49.65;101324.44;5027339;28;20045;-72
2022/08/11 04:24:50;;;;;;;1.60;1.10;;;;;;;22.56;49.93;101324.50;5028993;28;20092;-73
2022/08/11 04:27:55;;;;;;;1.48;0.90;;;;;;;22.44;49.88;101322.00;5025937;28;20092;-72
2022/08/11 04:30:31;;;;;;;4.10;0.85;;;;;;;22.34;50.50;101322.09;4949739;28;20075;-73
2022/08/11 04:33:42;;;;;;;2.33;0.70;;;;;;;22.24;51.10;101327.47;5027930;28;20049;-71
2022/08/11 04:39:34;;;;;;;2.40;1.20;;;;;;;22.03;52.98;101329.38;5028817;28;20054;-71
2022/08/11 04:45:50;;;;;;;3.15;1.08;;;;;;;21.83;53.17;101337.47;5026803;28;20060;-73
2022/08/11 05:07:21;;;;;;;3.97;1.13;;;;;;;21.09;55.63;101342.28;5021012;28;20080;-72
2022/08/11 05:10:17;;;;;;;2.25;0.98;;;;;;;21.00;55.97;101339.69;5024649;28;20056;-72
2022/08/11 05:12:49;;;;;;;2.08;1.10;;;;;;;20.92;56.34;101343.22;5023865;28;20054;-72
2022/08/11 05:35:28;;;;;;;2.95;1.20;;;;;;;20.24;60.23;101357.38;5027804;28;20125;-72
2022/08/11 05:57:38;;;;;;;1.85;1.13;;;;;;;19.70;60.69;101362.63;5027256;28;20056;-72
2022/08/11 06:00:10;;;;;;;3.75;1.10;;;;;;;19.65;60.57;101353.81;5024401;28;20057;-76
2022/08/11 06:02:43;;;;;;;5.32;1.30;;;;;;;19.57;59.90;101352.94;5024730;28;20125;-75
2022/08/11 06:05:13;;;;;;;3.65;1.33;;;;;;;19.55;60.59;101352.06;5022769;28;20049;-74
2022/08/11 06:07:42;;;;;;;4.95;1.58;;;;;;;19.52;60.23;101357.31;5024988;28;20071;-73
2022/08/11 06:10:12;;;;;;;3.55;1.20;;;;;;;19.49;62.18;101352.91;5023094;28;20486;-73
2022/08/11 06:12:43;;;;;;;2.13;1.50;;;;;;;19.42;61.96;101362.53;5022827;28;20046;-72
2022/08/11 06:15:14;;;;;;;4.10;1.33;;;;;;;19.39;61.96;101359.88;5023404;28;20130;-73
2022/08/11 06:17:46;;;;;;;3.90;1.33;;;;;;;19.36;62.07;101356.38;5024577;28;20053;-76
2022/08/11 06:20:17;;;;;;;3.65;1.40;;;;;;;19.32;61.81;101354.63;5025663;28;20575;-75
2022/08/11 06:22:48;;;;;;;4.18;1.50;;;;;;;19.26;61.43;101347.59;5031895;28;20056;-76
2022/08/11 06:25:18;;;;;;;5.88;1.40;;;;;;;19.21;62.03;101350.19;5024485;28;20057;-76
2022/08/11 06:27:55;;;;;;;3.13;1.30;;;;;;;19.18;63.04;101351.97;5027155;28;21038;-74
2022/08/11 06:30:38;;;;;;;2.97;1.60;;;;;;;19.13;62.75;101353.69;5026978;28;20084;-75
2022/08/11 06:33:10;;;;;;;3.65;1.20;;;;;;;19.10;62.59;101349.28;5026571;28;20049;-75
2022/08/11 06:35:50;;;;;;;1.60;1.35;;;;;;;19.05;62.41;101349.25;5027406;28;20139;-75
2022/08/11 06:38:37;;;;;;;3.97;1.48;;;;;;;19.02;62.07;101351.88;5029270;28;20053;-76
2022/08/11 06:41:31;;;;;;;6.78;1.70;;;;;;;18.98;62.02;101352.72;5031803;28;20136;-75
2022/08/11 06:44:21;;;;;;;5.68;1.48;;;;;;;18.95;62.19;101350.09;5029733;28;20054;-72
2022/08/11 06:46:54;;;;;;;2.60;1.30;;;;;;;18.89;63.26;101346.59;5028998;28;20049;-73
2022/08/11 06:52:18;;;;;;;6.53;1.40;;;;;;;18.81;63.00;101338.69;5015002;28;20690;-76
2022/08/11 06:55:04;;;;;;;4.10;1.65;;;;;;;18.78;63.05;101343.91;5010028;28;20061;-74
2022/08/11 07:00:28;;;;;;;1.80;1.10;;;;;;;18.74;63.31;101344.75;5014008;28;20084;-76
2022/08/11 07:03:07;;;;;;;3.53;1.40;;;;;;;18.70;63.27;101342.97;5010292;28;20511;-76
2022/08/11 07:05:46;;;;;;;1.90;1.20;;;;;;;18.68;63.59;101339.47;5007476;28;20048;-76
2022/08/11 07:17:21;;;;;;;1.70;1.10;;;;;;;18.53;64.58;101343.75;5016763;28;20864;-76
2022/08/11 07:31:12;;;;;;;2.95;1.20;;;;;;;18.32;65.59;101344.47;5016612;28;20084;-75
2022/08/11 07:33:46;;;;;;;2.15;1.05;;;;;;;18.29;65.93;101352.31;5015579;28;20045;-75
2022/08/11 07:36:18;;;;;;;1.52;1.20;;;;;;;18.24;66.03;101350.53;5014773;28;20069;-75
2022/08/11 07:38:51;;;;;;;3.90;1.30;;;;;;;18.20;66.27;101345.25;5016319;28;20483;-76
2022/08/11 07:41:23;;;;;;;2.83;1.25;;;;;;;18.17;66.28;101347.88;5015775;28;20104;-75
2022/08/11 07:44:07;;;;;;;1.88;1.10;;;;;;;18.12;66.75;101341.72;5020687;28;20049;-75
2022/08/11 07:52:29;;;;;;;2.25;1.50;;;;;;;17.96;67.65;101342.47;5024366;28;20099;-74
2022/08/11 07:55:00;;;;;;;3.58;1.10;;;;;;;17.94;68.24;101347.69;5025420;28;20500;-73
2022/08/11 08:19:48;;;;;;;3.25;1.08;;;;;;;17.73;69.34;101343.09;5025289;28;20052;-75
2022/08/11 08:22:19;;;;;;;4.47;1.20;;;;;;;17.66;70.60;101343.91;5025899;28;20049;-75
2022/08/11 08:24:49;;;;;;;3.45;1.20;;;;;;;17.61;70.22;101337.72;5029397;28;20621;-77
2022/08/11 08:27:19;;;;;;;1.70;1.08;;;;;;;17.59;70.40;101345.56;5029686;28;20479;-77
2022/08/11 08:32:35;;;;;;;2.25;1.00;;;;;;;17.56;70.88;101339.41;5025747;28;20057;-77
2022/08/11 08:35:05;;;;;;;3.63;1.23;;;;;;;17.52;71.16;101340.25;5029524;28;20137;-75
2022/08/11 08:37:34;;;;;;;1.50;1.00;;;;;;;17.47;71.30;101342.81;5024796;28;20074;-73
2022/08/11 08:40:05;;;;;;;3.20;0.95;;;;;;;17.45;70.54;101341.91;5029828;28;20049;-76
2022/08/11 08:42:40;;;;;;;4.25;1.30;;;;;;;17.43;71.91;101340.16;5023644;28;20045;-75
2022/08/11 08:45:12;;;;;;;2.08;1.02;;;;;;;17.42;72.34;101341.03;5029578;28;20525;-76
2022/08/11 08:47:44;;;;;;;3.73;1.23;;;;;;;17.40;72.08;101335.75;5025168;28;20049;-77
2022/08/11 08:50:15;;;;;;;1.67;1.10;;;;;;;17.38;72.74;101337.50;5009162;28;20049;-75
2022/08/11 08:52:49;;;;;;;3.10;1.58;;;;;;;17.36;72.74;101334.88;5013762;28;20530;-76
2022/08/11 08:55:21;;;;;;;2.80;1.17;;;;;;;17.33;72.49;101332.22;5008042;28;20557;-78
2022/08/11 08:57:53;;;;;;;2.22;1.38;;;;;;;17.30;72.54;101333.94;5007987;28;20045;-76
2022/08/11 09:00:21;;;;;;;1.90;1.23;;;;;;;17.25;72.15;101335.59;5008519;28;20048;-75
2022/08/11 09:02:50;;;;;;;3.35;1.40;;;;;;;17.21;72.63;101332.09;5009614;28;20115;-75
2022/08/11 09:05:20;;;;;;;1.45;1.10;;;;;;;17.15;72.75;101329.38;5014150;28;20131;-76
2022/08/11 09:07:56;;;;;;;2.15;1.05;;;;;;;17.11;73.28;101331.09;5009929;28;20057;-74
2022/08/11 09:10:29;;;;;;;1.92;0.93;;;;;;;17.09;73.67;101324.97;5010735;28;20107;-76
2022/08/11 09:12:59;;;;;;;3.00;1.33;;;;;;;17.05;73.06;101325.78;5006575;28;20050;-76
2022/08/11 09:15:28;;;;;;;1.88;1.23;;;;;;;17.04;73.72;101324.06;5009253;28;20483;-77
2022/08/11 09:18:04;;;;;;;2.25;1.20;;;;;;;17.03;74.27;101324.03;5007762;28;20053;-76
2022/08/11 09:20:35;;;;;;;3.83;1.23;;;;;;;17.01;74.43;101320.50;5008985;28;20077;-75
2022/08/11 09:28:44;;;;;;;3.10;1.02;;;;;;;16.92;75.05;101311.69;5011588;28;20073;-76
2022/08/11 09:31:15;;;;;;;7.53;2.25;;;;;;;16.88;74.83;101311.63;5010744;28;20054;-76
2022/08/11 09:33:45;;;;;;;2.72;1.42;;;;;;;16.86;74.70;101310.72;5012746;28;20108;-77
2022/08/11 09:41:56;;;;;;;3.45;1.25;;;;;;;16.81;75.38;101321.13;5005613;28;20046;-75
2022/08/11 09:47:17;;;;;;;7.90;1.70;;;;;;;16.75;75.56;101328.88;5008891;28;20056;-76
2022/08/11 09:49:58;;;;;;;4.65;1.38;;;;;;;16.73;75.81;101320.13;5009279;28;21277;-75
2022/08/11 09:52:28;;;;;;;2.22;1.33;;;;;;;16.69;76.22;101310.47;5011937;28;20054;-74
2022/08/11 09:54:57;;;;;;;4.20;1.45;;;;;;;16.67;76.33;101307.84;5007587;28;20108;-76
2022/08/11 10:00:14;;;;;;;1.73;1.15;;;;;;;16.61;76.62;101304.31;5010306;28;20056;-76
2022/08/11 10:02:46;;;;;;;4.18;1.50;;;;;;;16.58;77.37;101307.72;5006846;28;20133;-76
2022/08/11 10:08:05;;;;;;;1.60;1.30;;;;;;;16.55;77.56;101311.16;5009217;28;20065;-77
2022/08/11 10:10:39;;;;;;;2.55;1.25;;;;;;;16.53;77.70;101306.78;5007074;28;20053;-77
2022/08/11 10:13:13;;;;;;;3.88;1.45;;;;;;;16.48;78.15;101306.72;5004235;28;20058;-77
2022/08/11 10:15:44;;;;;;;3.30;1.33;;;;;;;16.51;77.82;101313.72;5010012;28;20100;-77
2022/08/11 10:21:03;;;;;;;4.03;1.38;;;;;;;16.47;78.64;101312.81;5010006;28;20053;-76
2022/08/11 10:34:38;;;;;;;3.03;1.75;;;;;;;16.35;78.63;101312.63;5008969;28;20099;-76
2022/08/11 10:37:12;;;;;;;2.90;1.30;;;;;;;16.32;78.68;101317.81;5008573;28;20054;-76
2022/08/11 10:39:43;;;;;;;2.83;1.17;;;;;;;16.29;78.52;101310.81;5009877;28;20116;-76
2022/08/11 10:45:01;;;;;;;3.40;1.50;;;;;;;16.21;79.35;101303.72;5009449;28;20147;-75
2022/08/11 10:47:35;;;;;;;2.25;1.20;;;;;;;16.23;79.27;101317.66;5014815;28;20886;-76
2022/08/11 11:01:13;;;;;;;2.80;1.10;;;;;;;16.08;79.76;101321.81;5022070;28;20184;-77
2022/08/11 11:03:43;;;;;;;5.35;1.10;;;;;;;16.07;79.69;101324.38;5022201;28;20045;-74
2022/08/11 11:06:25;;;;;;;5.38;1.27;;;;;;;16.02;79.60;101316.47;5019073;28;20774;-76
2022/08/11 11:08:59;;;;;;;2.07;1.13;;;;;;;16.03;79.82;101317.34;5022690;28;20120;-77
2022/08/11 11:19:54;;;;;;;2.22;1.23;;;;;;;15.96;80.29;101316.38;5022472;28;20056;-76
2022/08/11 11:22:38;;;;;;;2.33;1.08;;;;;;;15.95;80.28;101311.16;5025247;28;20574;-80
2022/08/11 11:25:21;;;;;;;3.13;1.05;;;;;;;15.94;80.77;101320.69;5023264;28;20095;-78
2022/08/11 11:28:10;;;;;;;3.05;1.00;;;;;;;15.93;80.42;101318.94;5028453;28;20053;-75
2022/08/11 11:30:48;;;;;;;1.55;1.00;;;;;;;15.91;80.51;101320.63;5029722;28;20099;-75
2022/08/11 11:33:26;;;;;;;1.60;1.02;;;;;;;15.91;81.58;101318.03;5029757;28;20042;-74
2022/08/11 11:36:10;;;;;;;1.95;0.98;;;;;;;15.90;80.87;101324.13;5029971;28;20051;-80
2022/08/11 11:38:40;;;;;;;3.92;1.10;;;;;;;15.90;80.80;101316.28;5017993;28;20574;-79
2022/08/11 11:41:28;;;;;;;1.88;1.20;;;;;;;15.87;81.67;101316.22;5027536;28;20049;-77
2022/08/11 11:43:58;;;;;;;2.95;1.10;;;;;;;15.87;81.07;101314.50;5026326;28;20188;-77
2022/08/11 11:46:29;;;;;;;2.88;1.55;;;;;;;15.84;81.57;101313.56;5031436;28;20057;-76
2022/08/11 11:49:07;;;;;;;2.45;1.08;;;;;;;15.82;81.37;101312.66;5012161;28;20059;-78
2022/08/11 11:51:38;;;;;;;3.00;1.35;;;;;;;15.80;81.05;101311.75;5030691;28;20037;-78
2022/08/11 11:54:08;;;;;;;3.33;1.30;;;;;;;15.78;81.41;101303.03;5028179;28;20057;-77
2022/08/11 11:56:38;;;;;;;3.28;1.08;;;;;;;15.77;81.50;101307.38;5028977;28;20052;-77
2022/08/11 12:01:55;;;;;;;2.78;0.93;;;;;;;15.76;82.26;101309.94;5027248;28;20056;-77
2022/08/11 12:04:26;;;;;;;1.80;1.17;;;;;;;15.75;81.38;101298.63;5030345;28;20526;-77
2022/08/11 12:09:45;;;;;;;2.08;1.33;;;;;;;15.64;81.53;101287.97;5026939;28;20541;-78
2022/08/11 12:14:59;;;;;;;2.78;1.33;;;;;;;15.67;82.74;101301.09;5024800;28;20061;-76
2022/08/11 12:17:28;;;;;;;4.28;1.80;;;;;;;15.66;82.11;101309.75;5023592;28;20507;-76
2022/08/11 12:19:58;;;;;;;3.90;1.30;;;;;;;15.62;82.58;101299.22;5025622;28;20625;-78
2022/08/11 12:27:58;;;;;;;2.47;1.33;;;;;;;15.57;81.88;101304.38;5029814;28;20119;-75
2022/08/11 12:30:27;;;;;;;2.35;1.17;;;;;;;15.56;81.78;101305.22;5029593;28;20474;-78
2022/08/11 12:32:57;;;;;;;3.35;1.30;;;;;;;15.52;82.22;101300.81;5029158;28;20522;-77
2022/08/11 12:35:28;;;;;;;4.40;1.40;;;;;;;15.52;82.53;101306.03;5029193;28;20506;-76
2022/08/11 12:38:00;;;;;;;2.85;1.60;;;;;;;15.50;82.60;101305.13;5029091;28;20403;-78
2022/08/11 12:46:07;;;;;;;3.13;1.63;;;;;;;15.45;82.48;101314.59;5023983;28;20664;-79
2022/08/11 12:54:25;;;;;;;3.55;1.20;;;;;;;15.35;82.58;101302.25;5025230;28;20056;-80
2022/08/11 13:05:18;;;;;;;1.73;1.17;;;;;;;15.28;83.33;101307.34;5026308;28;20139;-81
2022/08/11 13:07:49;;;;;;;3.53;1.38;;;;;;;15.24;83.33;101308.13;5028412;28;20045;-79
2022/08/11 13:12:46;;;;;;;2.07;1.37;;;;;;;15.23;83.06;101315.91;5025181;28;20071;-79
2022/08/11 13:13:08;;;;;;;2.65;1.30;;;;;;;15.18;82.70;101310.59;5024799;28;20056;-80
2022/08/11 13:15:38;;;;;;;2.88;1.30;;;;;;;15.17;82.86;101310.59;5024580;28;20543;-80
2022/08/11 13:18:08;;;;;;;2.05;1.08;;;;;;;15.16;83.60;101314.91;5024635;28;20470;-79
2022/08/11 13:20:37;;;;;;;3.50;1.42;;;;;;;15.16;83.94;101322.72;5029611;28;20081;-79
2022/08/11 13:23:11;;;;;;;2.35;1.23;;;;;;;15.15;83.72;101310.56;5028003;28;20053;-80
2022/08/11 13:25:42;;;;;;;4.68;1.20;;;;;;;15.14;84.36;101316.63;5027043;28;20644;-81
2022/08/11 13:28:11;;;;;;;2.35;1.40;;;;;;;15.13;83.83;101316.59;5025210;28;20052;-79
2022/08/11 13:33:27;;;;;;;5.10;1.38;;;;;;;15.08;83.46;101319.09;5023234;28;20057;-74
2022/08/11 13:36:02;;;;;;;2.13;1.15;;;;;;;15.01;84.60;101318.09;5029347;28;20057;-73
2022/08/11 13:38:33;;;;;;;4.57;1.40;;;;;;;14.98;84.20;101319.75;5027699;28;20111;-74
2022/08/11 13:41:36;;;;;;;3.85;1.27;;;;;;;14.88;84.62;101321.28;5030549;28;20490;-74
2022/08/11 13:43:52;;;;;;;2.33;1.30;;;;;;;14.77;84.59;101318.44;5027826;28;20076;-75
2022/08/11 13:46:23;;;;;;;4.25;1.27;;;;;;;14.73;84.64;101324.47;5029157;28;20076;-73
2022/08/11 13:48:59;;;;;;;2.47;1.52;;;;;;;14.65;85.50;101329.47;5027305;28;20050;-73
2022/08/11 13:51:32;;;;;;;3.22;1.52;;;;;;;14.60;86.28;101335.47;5026122;28;20767;-73
2022/08/11 13:54:06;;;;;;;6.55;2.60;;;;;;;14.58;86.36;101331.94;5026411;28;20041;-76
2022/08/11 13:56:38;;;;;;;2.58;1.35;;;;;;;14.59;86.79;101334.59;5019207;28;20519;-72
2022/08/11 13:59:08;;;;;;;2.25;1.00;;;;;;;14.61;86.75;101326.78;5028078;28;20041;-72
2022/08/11 14:01:40;;;;;;;5.90;1.38;;;;;;;14.63;87.20;101331.19;5028472;28;20406;-73
2022/08/11 14:04:12;;;;;;;3.00;1.70;;;;;;;14.60;87.24;101331.13;5022992;28;20127;-73
2022/08/11 14:06:46;;;;;;;2.70;1.10;;;;;;;14.57;87.52;101330.19;5024668;28;20495;-73
2022/08/11 14:09:21;;;;;;;3.08;1.42;;;;;;;14.57;88.39;101331.06;5024377;28;20111;-73
2022/08/11 14:14:36;;;;;;;8.77;1.80;;;;;;;14.65;87.63;101319.06;5024047;28;20099;-73
2022/08/11 14:17:08;;;;;;;4.45;1.50;;;;;;;14.69;87.40;101320.03;5026621;28;20654;-75
2022/08/11 14:19:41;;;;;;;3.92;1.83;;;;;;;14.72;87.22;101322.69;5023816;28;20494;-74
2022/08/11 14:22:10;;;;;;;2.85;1.50;;;;;;;14.74;86.99;101323.59;5027509;28;20045;-74
2022/08/11 14:24:42;;;;;;;2.88;1.27;;;;;;;14.77;86.90;101325.38;5028511;28;20056;-73
2022/08/11 14:27:15;;;;;;;4.43;1.80;;;;;;;14.79;87.35;101324.56;5025621;28;20053;-74
2022/08/11 14:29:46;;;;;;;6.10;1.95;;;;;;;14.79;87.57;101323.69;5025186;28;20045;-75
2022/08/11 14:32:16;;;;;;;4.50;2.33;;;;;;;14.81;87.98;101322.88;5025516;28;20061;-72
2022/08/11 14:34:48;;;;;;;3.15;1.73;;;;;;;14.85;87.84;101321.25;5027663;28;20046;-73
2022/08/11 14:37:21;;;;;;;3.33;1.88;;;;;;;14.86;88.17;101318.63;5024649;28;20084;-72
2022/08/11 14:39:54;;;;;;;2.80;1.90;;;;;;;14.92;89.31;101327.47;5024473;28;20568;-74
2022/08/11 14:48:03;;;;;;;3.70;2.15;;;;;;;15.03;88.16;101325.94;5027196;28;20057;-72
2022/08/11 14:50:34;;;;;;;3.38;2.08;;;;;;;15.10;87.88;101325.22;5025106;28;20049;-72
2022/08/11 14:53:05;;;;;;;5.57;1.75;;;;;;;15.15;88.30;101325.31;5025891;28;20053;-74
2022/08/11 14:58:26;;;;;;;2.92;1.50;;;;;;;15.33;87.30;101316.97;5018945;28;20076;-72
2022/08/11 15:00:57;;;;;;;3.45;1.50;;;;;;;15.37;86.61;101314.47;5026859;28;20102;-73
2022/08/11 15:03:25;;;;;;;3.50;1.52;;;;;;;15.48;86.57;101320.75;5032557;28;20053;-73
2022/08/11 15:05:56;;;;;;;3.00;1.65;;;;;;;15.56;86.42;101312.19;5029055;28;20064;-74
2022/08/11 15:13:55;;;;;;;4.35;1.60;;;;;;;15.82;85.33;101312.66;5029355;28;20042;-73
2022/08/11 15:19:11;;;;;;;3.13;1.85;;;;;;;15.96;85.91;101311.16;5029865;28;20056;-72
2022/08/11 15:24:27;;;;;;;5.80;1.85;;;;;;;16.15;85.04;101314.97;5029656;28;20152;-72
2022/08/11 15:38:22;;;;;;;2.47;1.95;;;;;;;16.74;83.58;101298.34;4944096;28;20054;-69
2022/08/11 15:46:34;;;;;;;5.18;1.88;;;;;;;18.37;78.20;101286.84;5028693;28;20048;-71
2022/08/11 15:49:09;;;;;;;3.90;1.70;;;;;;;19.04;75.15;101287.19;5020344;28;20514;-72
2022/08/11 15:51:41;;;;;;;2.17;1.63;;;;;;;19.20;73.35;101277.63;5001927;28;20103;-72
2022/08/11 15:54:12;;;;;;;2.60;1.52;;;;;;;19.41;73.07;101279.41;5006636;28;20054;-72
2022/08/11 15:56:43;;;;;;;3.85;2.28;;;;;;;19.61;72.11;101273.31;5007847;28;20052;-73
2022/08/11 16:05:00;;;;;;;3.28;2.03;;;;;;;19.97;70.75;101271.56;5004843;28;20065;-72
2022/08/11 16:07:34;;;;;;;4.18;1.90;;;;;;;20.04;70.10;101262.81;5000009;28;20053;-74
2022/08/11 16:10:06;;;;;;;5.07;1.92;;;;;;;20.22;70.22;101267.16;5001837;28;20112;-74
2022/08/11 16:12:41;;;;;;;2.63;1.75;;;;;;;20.50;68.54;101253.06;5008343;28;20675;-76
2022/08/11 16:18:01;;;;;;;4.00;1.67;;;;;;;20.58;68.55;101247.81;5005807;28;20200;-78
2022/08/11 16:20:32;;;;;;;6.65;2.15;;;;;;;20.64;67.84;101250.44;5011204;28;20049;-74
2022/08/11 16:23:05;;;;;;;3.90;1.80;;;;;;;20.68;67.92;101254.78;5010462;28;20056;-73
2022/08/11 16:25:36;;;;;;;3.75;2.00;;;;;;;20.74;68.50;101255.66;5012311;28;20049;-74
2022/08/11 16:28:07;;;;;;;4.53;2.30;;;;;;;20.84;69.20;101257.34;5007576;28;20050;-74
2022/08/11 16:30:41;;;;;;;2.75;2.08;;;;;;;20.93;68.53;101252.03;5007728;28;20046;-72
2022/08/11 16:33:12;;;;;;;5.32;2.15;;;;;;;21.01;67.98;101252.00;5009653;28;20062;-72
2022/08/11 16:38:35;;;;;;;2.70;1.77;;;;;;;21.16;67.08;101243.13;5010857;28;20432;-71
2022/08/11 16:41:06;;;;;;;4.25;2.25;;;;;;;21.25;65.87;101235.16;5009397;28;20049;-72
2022/08/11 16:49:21;;;;;;;5.18;2.25;;;;;;;21.51;67.07;101233.25;5010532;28;20727;-72
2022/08/11 16:55:12;;;;;;;3.78;2.58;;;;;;;21.79;63.94;101227.75;5202629;23;20065;-72
2022/08/11 17:00:30;;;;;;;3.67;2.58;;;;;;;22.02;64.35;101214.34;4987159;28;20054;-74
2022/08/11 17:14:25;;;;;;;3.00;2.15;;;;;;;22.89;63.51;101203.63;4983402;28;20518;-72
2022/08/11 17:16:54;;;;;;;3.38;2.38;;;;;;;23.15;62.23;101203.28;4984790;28;20051;-79
2022/08/11 17:19:29;;;;;;;5.32;2.28;;;;;;;23.41;60.87;101200.22;4984140;28;20054;-74
2022/08/11 17:24:46;;;;;;;7.18;2.58;;;;;;;23.96;57.70;101191.34;4987970;28;20120;-72
2022/08/11 17:27:17;;;;;;;5.43;2.97;;;;;;;24.29;56.33;101194.22;4986193;28;20066;-72
2022/08/11 17:29:50;;;;;;;4.32;2.78;;;;;;;24.66;55.55;101185.53;4988241;28;20104;-71